Time;durP1;ratioP1;P1;durP2;ratioP2;P2;SDS_P1;SDS_P2;PMS_P1;PMS_P2;Temp;Humidity;BMP_temperature;BMP_pressure;BME280_temperature;BME280_humidity;BME280_pressure;Samples;Min_cycle;Max_cycle;Signal;HPM_P1;HPM_P2
2022/12/15 00:39:33;;;;;;;22.00;11.40;;;-2.70;61.60;;;;;;5023093;28;20053;-50
2022/12/15 00:42:00;;;;;;;22.45;12.70;;;-2.70;61.60;;;;;;5029826;28;20041;-49
2022/12/15 00:44:30;;;;;;;22.42;13.70;;;-2.70;61.70;;;;;;5029020;28;20466;-50
2022/12/15 00:46:56;;;;;;;20.55;12.95;;;-2.70;61.60;;;;;;5026866;28;20405;-52
2022/12/15 01:20:22;;;;;;;21.33;12.93;;;-2.80;61.90;;;;;;5059079;22;20049;-52
2022/12/15 01:22:51;;;;;;;22.67;13.70;;;-2.80;61.90;;;;;;5060563;28;20535;-50
2022/12/15 01:25:22;;;;;;;18.17;12.68;;;-2.80;61.90;;;;;;5054086;28;20045;-55
2022/12/15 01:27:51;;;;;;;19.80;13.82;;;-2.80;61.90;;;;;;5053653;28;20037;-53
2022/12/15 01:30:23;;;;;;;23.08;13.63;;;-2.80;61.90;;;;;;5045497;28;20128;-56
2022/12/15 01:32:52;;;;;;;23.27;13.80;;;-2.80;61.90;;;;;;5053706;28;20041;-56
2022/12/15 01:35:20;;;;;;;25.38;14.65;;;-2.70;62.00;;;;;;5048270;28;20045;-56
2022/12/15 01:37:47;;;;;;;21.23;14.18;;;-2.70;61.90;;;;;;5070230;28;20032;-53
2022/12/15 01:43:23;;;;;;;21.70;13.85;;;-2.70;61.90;;;;;;5062040;28;20425;-53
2022/12/15 01:46:02;;;;;;;20.80;13.18;;;-2.70;61.90;;;;;;5044978;28;20041;-51
2022/12/15 01:48:52;;;;;;;14.95;10.15;;;-2.70;61.80;;;;;;5050095;28;20129;-54
2022/12/15 01:51:36;;;;;;;23.92;13.82;;;-2.70;61.70;;;;;;5065258;28;20067;-51
2022/12/15 01:54:14;;;;;;;26.30;15.80;;;-2.70;61.90;;;;;;5050267;28;20517;-54
2022/12/15 01:56:47;;;;;;;25.15;14.40;;;-2.70;61.90;;;;;;5042498;28;20041;-53
2022/12/15 01:59:24;;;;;;;26.85;15.25;;;-2.70;62.00;;;;;;5069406;28;20542;-54
2022/12/15 02:01:50;;;;;;;26.08;14.75;;;-2.70;62.00;;;;;;5072883;28;20173;-55
2022/12/15 02:04:21;;;;;;;23.60;14.23;;;-2.70;62.10;;;;;;5049860;28;20045;-51
2022/12/15 02:06:52;;;;;;;26.45;14.88;;;-2.70;62.10;;;;;;5052160;28;20049;-50
2022/12/15 02:09:32;;;;;;;27.80;16.27;;;-2.70;62.10;;;;;;5053153;28;20040;-54
2022/12/15 02:12:34;;;;;;;27.60;14.52;;;-2.70;62.10;;;;;;5028877;28;20039;-53
2022/12/15 02:15:04;;;;;;;20.67;13.80;;;-2.70;62.20;;;;;;5008690;28;20564;-50
2022/12/15 02:18:13;;;;;;;26.00;14.35;;;-2.70;62.10;;;;;;5053286;28;20057;-50
2022/12/15 02:20:46;;;;;;;21.05;13.85;;;-2.70;62.00;;;;;;5048420;28;20111;-54
2022/12/15 02:23:34;;;;;;;21.35;14.82;;;-2.70;62.00;;;;;;5033786;28;20041;-57
2022/12/15 02:26:16;;;;;;;19.42;13.25;;;-2.70;62.00;;;;;;5050601;28;20090;-50
2022/12/15 02:29:20;;;;;;;21.48;13.95;;;-2.60;62.00;;;;;;5041470;28;20044;-51
2022/12/15 02:32:03;;;;;;;23.88;14.18;;;-2.70;62.00;;;;;;5039843;28;20083;-51
2022/12/15 02:34:51;;;;;;;25.90;14.15;;;-2.50;62.10;;;;;;5052236;28;20048;-51
2022/12/15 02:37:22;;;;;;;21.48;14.02;;;-2.60;62.00;;;;;;5051866;28;20041;-53
2022/12/15 02:39:51;;;;;;;22.02;14.40;;;-2.70;61.90;;;;;;5031187;28;20095;-57
2022/12/15 02:42:22;;;;;;;21.17;13.50;;;-2.70;62.00;;;;;;5049701;28;20044;-52
2022/12/15 02:44:56;;;;;;;24.20;14.73;;;-2.70;62.20;;;;;;5051262;28;20044;-51
2022/12/15 02:47:51;;;;;;;26.45;15.45;;;-2.60;62.30;;;;;;5045078;28;20215;-57
2022/12/15 02:50:50;;;;;;;26.80;14.98;;;-2.60;62.40;;;;;;5046775;28;20079;-56
2022/12/15 02:53:38;;;;;;;23.88;14.13;;;-2.60;62.40;;;;;;5050519;28;20045;-54
2022/12/15 02:56:35;;;;;;;21.70;13.93;;;-2.60;62.40;;;;;;5060113;28;20755;-52
2022/12/15 02:59:13;;;;;;;22.67;14.30;;;-2.60;62.30;;;;;;5042629;28;20044;-52
2022/12/15 03:02:01;;;;;;;23.70;14.70;;;-2.60;62.30;;;;;;5051490;28;20045;-52
2022/12/15 03:04:32;;;;;;;21.65;14.07;;;-2.60;62.30;;;;;;5051590;28;20037;-55
2022/12/15 03:07:06;;;;;;;22.73;13.88;;;-2.60;62.30;;;;;;5048600;28;20075;-52
2022/12/15 03:09:33;;;;;;;24.00;13.75;;;-2.60;62.30;;;;;;5047089;28;20045;-54
2022/12/15 03:12:03;;;;;;;23.58;14.52;;;-2.60;62.30;;;;;;5042030;28;20037;-53
2022/12/15 03:14:33;;;;;;;26.35;15.52;;;-2.60;62.30;;;;;;5050482;28;20044;-56
2022/12/15 03:17:00;;;;;;;18.55;13.32;;;-2.60;62.30;;;;;;5049232;28;20037;-51
2022/12/15 03:19:29;;;;;;;26.75;15.32;;;-2.60;62.20;;;;;;5047614;28;20033;-52
2022/12/15 03:21:56;;;;;;;27.73;16.27;;;-2.60;62.30;;;;;;5047799;28;20048;-51
2022/12/15 03:24:24;;;;;;;25.55;14.32;;;-2.60;62.50;;;;;;5050126;28;20404;-53
2022/12/15 03:26:52;;;;;;;23.67;14.43;;;-2.60;62.70;;;;;;5045988;28;20299;-51
2022/12/15 03:29:22;;;;;;;25.45;15.13;;;-2.60;62.70;;;;;;5049794;28;20127;-51
2022/12/15 03:31:49;;;;;;;24.13;14.35;;;-2.60;62.60;;;;;;5045419;28;20033;-56
2022/12/15 03:34:19;;;;;;;24.00;13.70;;;-2.60;62.50;;;;;;5046686;28;20056;-58
2022/12/15 03:36:45;;;;;;;22.45;13.38;;;-2.60;62.40;;;;;;5047153;28;20041;-57
2022/12/15 03:39:14;;;;;;;23.40;13.30;;;-2.60;62.40;;;;;;5050296;28;20398;-54
2022/12/15 03:41:47;;;;;;;25.53;14.50;;;-2.60;62.30;;;;;;5050812;28;20048;-53
2022/12/15 03:44:17;;;;;;;26.83;15.80;;;-2.60;62.30;;;;;;5044042;28;20645;-54
2022/12/15 03:46:46;;;;;;;26.63;14.93;;;-2.60;62.30;;;;;;5042713;28;20044;-56
2022/12/15 03:49:15;;;;;;;24.48;14.57;;;-2.60;62.50;;;;;;5050915;28;20398;-51
2022/12/15 03:51:43;;;;;;;25.65;15.00;;;-2.60;62.40;;;;;;5045734;28;20033;-51
2022/12/15 03:54:13;;;;;;;25.95;14.43;;;-2.60;62.40;;;;;;5047444;28;20557;-55
2022/12/15 03:56:44;;;;;;;;;;;-2.60;62.40;;;;;;5038450;28;20501;-50
2022/12/15 03:59:11;;;;;;;23.85;13.07;;;-2.60;62.40;;;;;;5046364;28;20396;-53
2022/12/15 04:01:47;;;;;;;27.00;16.60;;;-2.60;62.20;;;;;;5062317;28;20048;-52
2022/12/15 04:04:22;;;;;;;26.80;16.52;;;-2.60;62.30;;;;;;5059787;28;20072;-53
2022/12/15 04:06:56;;;;;;;26.10;15.43;;;-2.60;62.30;;;;;;5049958;28;20041;-54
2022/12/15 04:09:24;;;;;;;22.77;14.25;;;-2.60;62.30;;;;;;5049924;28;20045;-56
2022/12/15 04:11:54;;;;;;;25.20;15.55;;;-2.60;62.40;;;;;;5050484;28;20123;-51
2022/12/15 04:14:23;;;;;;;25.70;15.23;;;-2.60;62.50;;;;;;5045545;28;20472;-54
2022/12/15 04:16:57;;;;;;;;;;;-2.60;62.70;;;;;;5044308;28;20048;-51
2022/12/15 04:22:17;;;;;;;28.33;16.02;;;-2.60;62.60;;;;;;5046443;28;20037;-52
2022/12/15 05:31:53;;;;;;;27.17;16.35;;;-2.40;63.00;;;;;;5042711;28;20033;-50
2022/12/15 05:34:25;;;;;;;29.55;18.55;;;-2.40;63.20;;;;;;5048828;28;20045;-53
2022/12/15 05:36:55;;;;;;;29.08;16.83;;;-2.40;63.30;;;;;;5048878;28;20120;-53
2022/12/15 05:39:23;;;;;;;29.35;17.30;;;-2.50;63.30;;;;;;5043154;28;20053;-53
2022/12/15 05:41:50;;;;;;;26.67;17.15;;;-2.50;63.30;;;;;;5040571;28;20049;-54
2022/12/15 05:44:18;;;;;;;32.05;17.42;;;-2.50;63.30;;;;;;5039452;28;20533;-50
2022/12/15 05:46:45;;;;;;;32.42;17.33;;;-2.40;63.40;;;;;;5043053;28;20041;-54
2022/12/15 05:49:14;;;;;;;30.52;16.35;;;-2.50;63.40;;;;;;5040849;28;20073;-53
2022/12/15 05:51:43;;;;;;;29.77;17.15;;;-2.50;63.40;;;;;;5035860;28;20044;-51
2022/12/15 05:54:12;;;;;;;30.45;17.60;;;-2.50;63.30;;;;;;5039511;28;20136;-52
2022/12/15 05:56:38;;;;;;;28.77;17.05;;;-2.50;63.20;;;;;;5043170;28;20631;-52
2022/12/15 05:59:05;;;;;;;26.38;17.70;;;-2.50;63.10;;;;;;5045477;28;20033;-56
2022/12/15 06:01:32;;;;;;;28.75;17.20;;;-2.50;63.20;;;;;;5045762;28;20053;-51
2022/12/15 06:03:58;;;;;;;30.13;16.30;;;-2.50;63.10;;;;;;5021646;28;20121;-51
2022/12/15 06:06:25;;;;;;;30.35;17.10;;;-2.50;63.10;;;;;;5049899;28;20049;-50
2022/12/15 06:08:52;;;;;;;29.05;16.92;;;-2.50;63.00;;;;;;5059227;28;20042;-54
2022/12/15 06:11:21;;;;;;;30.80;15.88;;;-2.40;63.20;;;;;;5066824;28;20041;-51
2022/12/15 06:13:47;;;;;;;29.48;18.13;;;-2.50;63.20;;;;;;5043815;28;20079;-52
2022/12/15 06:16:17;;;;;;;25.70;15.40;;;-2.50;63.20;;;;;;5053884;28;20036;-53
2022/12/15 06:18:49;;;;;;;32.25;16.58;;;-2.50;63.10;;;;;;5044832;28;20033;-54
2022/12/15 06:21:18;;;;;;;24.55;16.33;;;-2.50;63.10;;;;;;5050245;28;20417;-54
2022/12/15 06:23:46;;;;;;;27.60;16.73;;;-2.50;63.00;;;;;;5050816;28;20132;-53
2022/12/15 06:26:20;;;;;;;30.00;16.52;;;-2.50;63.00;;;;;;5049025;28;20047;-54
2022/12/15 06:28:48;;;;;;;34.15;17.52;;;-2.50;63.00;;;;;;5049775;28;20064;-52
2022/12/15 06:31:17;;;;;;;29.55;17.67;;;-2.50;63.00;;;;;;5048429;28;20420;-51
2022/12/15 06:33:43;;;;;;;27.38;16.38;;;-2.60;63.10;;;;;;5040901;28;20041;-57
2022/12/15 06:36:13;;;;;;;30.30;16.95;;;-2.60;63.20;;;;;;5047791;28;20417;-52
2022/12/15 06:38:43;;;;;;;28.40;16.40;;;-2.60;63.30;;;;;;5049710;28;20682;-51
2022/12/15 06:41:12;;;;;;;28.85;18.20;;;-2.50;63.30;;;;;;5049396;28;20053;-56
2022/12/15 06:43:40;;;;;;;29.55;17.02;;;-2.50;63.30;;;;;;5046152;28;20047;-55
2022/12/15 06:46:07;;;;;;;28.17;15.98;;;-2.60;63.40;;;;;;5047138;28;20432;-52
2022/12/15 06:48:34;;;;;;;30.60;17.50;;;-2.60;63.40;;;;;;5050079;28;20057;-53
2022/12/15 06:51:06;;;;;;;28.92;16.70;;;-2.60;63.30;;;;;;5040818;28;20055;-52
2022/12/15 06:53:44;;;;;;;25.98;15.93;;;-2.60;63.30;;;;;;5047894;28;20044;-54
2022/12/15 06:56:34;;;;;;;33.88;16.45;;;-2.50;63.20;;;;;;5053815;28;20037;-51
2022/12/15 06:59:06;;;;;;;26.02;16.23;;;-2.50;63.20;;;;;;5039751;28;20043;-52
2022/12/15 07:01:32;;;;;;;26.52;16.35;;;-2.50;63.10;;;;;;5052463;28;20139;-54
2022/12/15 07:04:01;;;;;;;28.42;17.27;;;-2.60;63.00;;;;;;5049817;28;20044;-54
2022/12/15 07:06:36;;;;;;;26.65;17.27;;;-2.60;62.90;;;;;;5049891;28;20060;-53
2022/12/15 07:09:06;;;;;;;28.38;15.82;;;-2.60;62.80;;;;;;5050389;28;20051;-55
2022/12/15 07:11:32;;;;;;;26.80;17.00;;;-2.60;62.80;;;;;;5039100;28;20052;-50
2022/12/15 07:13:59;;;;;;;28.08;17.70;;;-2.60;62.80;;;;;;5047166;28;20047;-54
2022/12/15 07:16:26;;;;;;;32.40;16.52;;;-2.60;62.80;;;;;;5048692;28;20045;-53
2022/12/15 07:18:54;;;;;;;29.52;16.75;;;-2.60;62.80;;;;;;5042341;28;20041;-54
2022/12/15 07:21:20;;;;;;;27.73;17.23;;;-2.60;62.90;;;;;;5049502;28;20052;-55
2022/12/15 07:23:47;;;;;;;28.70;17.40;;;-2.60;62.90;;;;;;5051659;28;20071;-52
2022/12/15 07:26:23;;;;;;;30.08;16.35;;;-2.70;62.80;;;;;;5046516;28;20596;-50
2022/12/15 07:28:51;;;;;;;28.08;16.83;;;-2.70;62.70;;;;;;5050414;28;20087;-52
2022/12/15 07:31:18;;;;;;;28.45;18.20;;;-2.70;62.70;;;;;;5047435;28;20041;-52
2022/12/15 07:33:47;;;;;;;29.23;16.55;;;-2.70;62.70;;;;;;5051113;28;20037;-51
2022/12/15 07:36:13;;;;;;;33.60;20.40;;;-2.70;62.70;;;;;;5059023;28;20040;-51
2022/12/15 07:38:40;;;;;;;30.48;18.35;;;-2.70;62.80;;;;;;5047722;28;20048;-53
2022/12/15 07:41:08;;;;;;;24.73;16.35;;;-2.70;62.90;;;;;;5050386;28;20131;-51
2022/12/15 07:43:35;;;;;;;31.45;17.15;;;-2.70;63.00;;;;;;5051460;28;20429;-52
2022/12/15 07:46:04;;;;;;;28.20;16.92;;;-2.60;63.10;;;;;;5044632;28;20056;-53
2022/12/15 07:48:31;;;;;;;30.33;17.02;;;-2.70;63.20;;;;;;5026777;28;20045;-51
2022/12/15 07:51:03;;;;;;;31.42;17.65;;;-2.70;63.30;;;;;;5048986;28;20095;-51
2022/12/15 07:53:38;;;;;;;28.13;16.92;;;-2.60;63.50;;;;;;5060987;28;20467;-51
2022/12/15 07:56:05;;;;;;;30.35;17.45;;;-2.60;63.50;;;;;;5049441;28;20051;-50
2022/12/15 07:58:36;;;;;;;27.55;17.27;;;-2.60;63.40;;;;;;5047001;28;20087;-52
2022/12/15 08:01:05;;;;;;;33.10;17.52;;;-2.60;63.40;;;;;;5050401;28;20396;-51
2022/12/15 08:03:33;;;;;;;31.48;17.10;;;-2.60;63.40;;;;;;5049518;28;20497;-52
2022/12/15 08:06:10;;;;;;;36.58;17.83;;;-2.60;63.30;;;;;;5044032;28;20086;-55
2022/12/15 08:08:37;;;;;;;28.50;18.85;;;-2.50;63.40;;;;;;5047729;28;20037;-52
2022/12/15 08:11:05;;;;;;;33.08;18.70;;;-2.50;63.40;;;;;;5045996;28;20037;-53
2022/12/15 08:13:35;;;;;;;32.97;17.33;;;-2.50;63.40;;;;;;5026551;28;20045;-55
2022/12/15 08:16:22;;;;;;;31.33;17.85;;;-2.50;63.30;;;;;;5044251;28;20418;-55
2022/12/15 08:18:49;;;;;;;35.22;16.67;;;-2.50;63.30;;;;;;5050400;28;20045;-53
2022/12/15 08:21:16;;;;;;;30.30;16.77;;;-2.50;63.30;;;;;;5051221;28;20119;-53
2022/12/15 08:23:43;;;;;;;32.85;17.73;;;-2.40;63.40;;;;;;5038264;28;20045;-52
2022/12/15 08:26:13;;;;;;;34.45;19.67;;;-2.50;63.30;;;;;;5042005;28;20124;-55
2022/12/15 08:28:41;;;;;;;32.28;17.88;;;-2.40;63.40;;;;;;5049927;28;20116;-53
2022/12/15 08:31:14;;;;;;;28.45;16.85;;;-2.40;63.30;;;;;;5047300;28;20051;-52
2022/12/15 08:33:42;;;;;;;30.70;16.65;;;-2.40;63.30;;;;;;5038160;28;20041;-52
2022/12/15 08:36:12;;;;;;;28.83;18.30;;;-2.40;63.30;;;;;;5030284;28;20034;-52
2022/12/15 08:38:41;;;;;;;29.33;16.95;;;-2.40;63.40;;;;;;5047103;28;20493;-53
2022/12/15 08:41:16;;;;;;;29.38;17.65;;;-2.40;63.60;;;;;;5058609;28;20040;-52
2022/12/15 08:43:46;;;;;;;32.50;19.40;;;-2.40;63.80;;;;;;5038634;28;20074;-54
2022/12/15 08:46:25;;;;;;;29.70;17.58;;;-2.30;64.00;;;;;;5042277;28;20029;-54
2022/12/15 08:48:54;;;;;;;30.63;17.88;;;-2.30;64.20;;;;;;5044622;28;20124;-54
2022/12/15 08:51:22;;;;;;;30.80;17.30;;;-2.30;64.10;;;;;;5054437;28;20040;-51
2022/12/15 08:53:53;;;;;;;31.17;17.23;;;-2.20;64.20;;;;;;5040920;28;20042;-51
2022/12/15 08:56:21;;;;;;;29.40;16.48;;;-2.20;64.20;;;;;;5039763;28;20052;-51
2022/12/15 08:58:49;;;;;;;28.02;16.45;;;-2.20;64.10;;;;;;5049435;28;20395;-54
2022/12/15 09:01:22;;;;;;;31.77;17.58;;;-2.10;64.10;;;;;;5045409;28;20051;-50
2022/12/15 09:03:54;;;;;;;27.98;18.08;;;-2.10;64.10;;;;;;5047849;28;20048;-51
2022/12/15 09:06:27;;;;;;;23.67;13.55;;;-2.00;64.20;;;;;;5047943;28;20064;-52
2022/12/15 09:08:59;;;;;;;32.42;21.23;;;-2.00;64.30;;;;;;5045347;28;20044;-51
2022/12/15 09:11:26;;;;;;;36.63;19.98;;;-2.00;64.40;;;;;;5056952;28;20028;-51
2022/12/15 09:13:53;;;;;;;34.63;21.27;;;-1.90;64.60;;;;;;5045206;28;20065;-52
2022/12/15 09:16:20;;;;;;;32.08;21.05;;;-1.80;64.70;;;;;;5045715;28;20033;-51
2022/12/15 09:18:53;;;;;;;29.23;19.15;;;-1.90;64.80;;;;;;5044862;28;20033;-53
2022/12/15 09:21:22;;;;;;;25.98;16.77;;;-1.80;64.90;;;;;;5042933;28;20041;-55
2022/12/15 09:23:50;;;;;;;28.20;18.42;;;-1.70;65.00;;;;;;5046723;28;20053;-55
2022/12/15 09:26:19;;;;;;;31.35;19.92;;;-1.80;65.00;;;;;;5029546;28;20071;-53
2022/12/15 09:28:45;;;;;;;31.38;18.83;;;-1.70;65.10;;;;;;5050738;28;20041;-54
2022/12/15 09:31:27;;;;;;;30.60;17.63;;;-1.70;65.10;;;;;;5032987;28;20682;-54
2022/12/15 09:33:57;;;;;;;28.85;17.17;;;-1.60;65.20;;;;;;5046598;28;20055;-55
2022/12/15 09:36:25;;;;;;;32.28;20.35;;;-1.50;65.40;;;;;;5050279;28;20030;-53
2022/12/15 09:38:55;;;;;;;30.38;18.90;;;-1.50;65.50;;;;;;5063338;28;20120;-53
2022/12/15 09:41:31;;;;;;;34.28;19.40;;;-1.50;65.70;;;;;;5042104;28;20047;-55
2022/12/15 09:44:00;;;;;;;34.80;20.92;;;-1.40;66.00;;;;;;5047790;28;20043;-52
2022/12/15 09:46:52;;;;;;;32.83;19.65;;;-1.20;66.10;;;;;;5043725;28;20047;-51
2022/12/15 09:49:28;;;;;;;35.83;19.42;;;-1.30;66.70;;;;;;5052718;28;20099;-54
2022/12/15 09:52:10;;;;;;;31.63;19.13;;;-1.20;66.40;;;;;;5053522;28;20075;-55
2022/12/15 09:54:40;;;;;;;;;;;-1.20;66.50;;;;;;5055887;28;20557;-55
2022/12/15 09:57:14;;;;;;;32.50;18.60;;;-1.10;67.40;;;;;;5047093;28;19924;-53
2022/12/15 10:00:09;;;;;;;39.67;19.35;;;-1.00;66.20;;;;;;5052562;28;20435;-51
2022/12/15 10:03:00;;;;;;;32.00;20.40;;;-1.00;66.40;;;;;;5048820;28;20221;-51
2022/12/15 10:05:58;;;;;;;28.75;18.73;;;-0.90;66.70;;;;;;5028452;28;20395;-54
2022/12/15 10:08:52;;;;;;;28.33;18.25;;;-0.90;66.50;;;;;;5053502;28;20124;-55
2022/12/15 10:11:28;;;;;;;37.33;19.45;;;-0.90;66.50;;;;;;5053287;28;20099;-54
2022/12/15 10:14:09;;;;;;;30.50;18.33;;;-0.90;66.30;;;;;;5049591;28;20502;-52
2022/12/15 10:17:01;;;;;;;33.35;19.10;;;-0.80;66.60;;;;;;5053194;28;20091;-55
2022/12/15 10:19:38;;;;;;;35.35;21.15;;;-0.80;66.50;;;;;;5047974;28;20037;-51
2022/12/15 10:22:09;;;;;;;33.67;20.75;;;-0.70;66.60;;;;;;5047627;28;20044;-55
2022/12/15 10:24:36;;;;;;;37.60;21.48;;;-0.70;66.50;;;;;;5035348;28;20048;-55
2022/12/15 10:27:54;;;;;;;28.73;18.98;;;-0.70;66.50;;;;;;5052361;28;20052;-53
2022/12/15 10:30:21;;;;;;;33.65;21.73;;;-0.60;66.90;;;;;;5049520;28;20497;-52
2022/12/15 10:33:18;;;;;;;31.95;20.80;;;-0.60;66.60;;;;;;5055007;28;20067;-49
2022/12/15 10:35:46;;;;;;;29.90;18.95;;;-0.50;66.90;;;;;;5044709;28;20497;-52
2022/12/15 10:38:28;;;;;;;32.45;19.63;;;-0.50;66.60;;;;;;5048935;28;20559;-54
2022/12/15 10:40:58;;;;;;;34.35;21.40;;;-0.50;66.90;;;;;;5045569;28;20505;-53
2022/12/15 10:43:35;;;;;;;32.17;19.55;;;-0.40;66.70;;;;;;5046087;28;20051;-52
2022/12/15 10:46:12;;;;;;;36.78;21.85;;;-0.40;66.80;;;;;;5041340;28;20065;-52
2022/12/15 10:48:41;;;;;;;32.58;20.85;;;-0.20;67.00;;;;;;5051849;28;20124;-54
2022/12/15 10:51:30;;;;;;;35.90;20.88;;;-0.30;66.80;;;;;;5051885;28;20408;-55
2022/12/15 10:54:08;;;;;;;30.00;19.10;;;-0.30;67.40;;;;;;5045904;28;20037;-54
2022/12/15 10:56:56;;;;;;;34.85;20.63;;;-0.20;67.10;;;;;;5022310;28;20037;-55
2022/12/15 10:59:27;;;;;;;33.65;22.23;;;-0.20;67.60;;;;;;5046810;28;20408;-55
2022/12/15 11:01:54;;;;;;;35.73;21.33;;;-0.20;67.20;;;;;;5045422;28;20045;-55
2022/12/15 11:04:26;;;;;;;33.13;21.92;;;-0.10;67.20;;;;;;5049958;28;20285;-55
2022/12/15 11:06:59;;;;;;;;;;;-0.10;67.40;;;;;;5048802;28;20073;-54
2022/12/15 11:09:35;;;;;;;31.45;18.08;;;0.00;68.30;;;;;;5048410;28;19925;-55
2022/12/15 11:15:30;;;;;;;32.03;19.50;;;0.10;67.80;;;;;;5043565;28;20412;-53
2022/12/15 11:18:12;;;;;;;33.63;19.52;;;0.20;68.10;;;;;;5038506;28;20045;-54
2022/12/15 11:20:47;;;;;;;23.63;14.27;;;0.20;67.60;;;;;;5049829;28;20048;-52
2022/12/15 11:23:43;;;;;;;34.90;19.95;;;0.20;67.70;;;;;;5049921;28;20106;-53
2022/12/15 11:26:39;;;;;;;32.45;20.05;;;0.20;67.80;;;;;;5048050;28;20052;-53
2022/12/15 11:29:22;;;;;;;21.90;15.53;;;0.30;68.00;;;;;;5040276;28;20052;-51
2022/12/15 11:31:51;;;;;;;34.05;20.92;;;0.40;67.80;;;;;;5043007;28;20055;-53
2022/12/15 11:34:24;;;;;;;32.33;21.25;;;0.40;67.50;;;;;;5044397;28;20041;-55
2022/12/15 11:37:30;;;;;;;33.80;21.52;;;0.40;67.60;;;;;;5051106;28;20040;-53
2022/12/15 11:40:21;;;;;;;32.33;20.85;;;0.50;67.90;;;;;;5006055;28;20094;-53
2022/12/15 11:43:17;;;;;;;30.48;18.88;;;0.50;67.60;;;;;;5053899;28;20068;-53
2022/12/15 11:46:17;;;;;;;31.13;20.30;;;0.50;67.60;;;;;;5046378;28;20120;-55
2022/12/15 11:48:46;;;;;;;30.77;18.73;;;0.60;67.70;;;;;;5042112;28;20041;-52
2022/12/15 11:51:24;;;;;;;34.58;20.83;;;0.60;67.30;;;;;;5050134;28;20120;-53
2022/12/15 11:54:06;;;;;;;37.05;21.65;;;0.60;67.30;;;;;;5047314;28;20116;-51
2022/12/15 11:56:45;;;;;;;31.48;20.02;;;0.60;67.20;;;;;;5047437;28;20076;-51
2022/12/15 11:59:40;;;;;;;31.38;20.10;;;0.60;67.30;;;;;;5050228;28;20134;-52
2022/12/15 12:02:32;;;;;;;36.67;21.33;;;0.70;67.50;;;;;;5043722;28;20040;-50
2022/12/15 12:05:42;;;;;;;30.67;19.67;;;0.70;67.60;;;;;;5231856;22;20045;-49
2022/12/15 12:08:29;;;;;;;30.70;19.25;;;0.70;67.70;;;;;;5049951;28;20052;-50
2022/12/15 12:11:17;;;;;;;33.08;19.58;;;0.70;67.40;;;;;;5049852;28;20037;-52
2022/12/15 12:14:05;;;;;;;31.23;20.48;;;0.80;67.40;;;;;;5046035;28;20083;-54
2022/12/15 12:16:43;;;;;;;30.85;19.27;;;0.80;67.60;;;;;;5041498;28;20546;-52
2022/12/15 12:19:15;;;;;;;33.25;20.25;;;0.80;67.40;;;;;;5035020;28;20041;-53
2022/12/15 12:21:44;;;;;;;32.05;19.38;;;0.80;67.50;;;;;;5046051;28;20577;-51
2022/12/15 12:24:25;;;;;;;33.15;20.85;;;0.90;67.60;;;;;;5045524;28;20041;-52
2022/12/15 12:27:22;;;;;;;33.13;20.63;;;0.90;67.60;;;;;;5048873;28;20050;-51
2022/12/15 12:29:59;;;;;;;31.20;19.33;;;1.00;67.70;;;;;;5031684;28;20037;-52
2022/12/15 12:32:53;;;;;;;30.45;19.33;;;1.00;67.50;;;;;;5034802;28;20045;-50
2022/12/15 12:35:37;;;;;;;27.30;19.73;;;1.00;67.80;;;;;;5026360;28;20120;-50
2022/12/15 12:38:06;;;;;;;30.38;19.45;;;1.10;67.70;;;;;;5002539;28;20042;-50
2022/12/15 12:41:04;;;;;;;36.00;20.52;;;1.10;67.40;;;;;;5026527;28;20117;-52
2022/12/15 12:43:32;;;;;;;30.15;19.52;;;1.20;67.60;;;;;;5028950;28;20060;-50
2022/12/15 12:46:38;;;;;;;35.72;21.92;;;1.20;67.20;;;;;;5018547;28;20042;-49
2022/12/15 12:49:14;;;;;;;32.58;20.92;;;1.20;67.60;;;;;;5026798;28;20060;-50
2022/12/15 12:51:53;;;;;;;32.90;20.58;;;1.30;67.40;;;;;;5035063;28;20036;-51
2022/12/15 12:54:33;;;;;;;30.33;19.33;;;1.30;67.30;;;;;;5040337;28;20104;-50
2022/12/15 12:57:21;;;;;;;32.15;20.25;;;1.30;67.40;;;;;;5041474;28;20037;-51
2022/12/15 12:59:57;;;;;;;31.60;21.02;;;1.40;67.20;;;;;;5016249;28;20112;-51
2022/12/15 13:02:24;;;;;;;33.97;22.45;;;1.40;67.20;;;;;;5036882;28;20046;-50
2022/12/15 13:05:20;;;;;;;32.42;21.13;;;1.40;67.10;;;;;;5038745;28;20056;-50
2022/12/15 13:07:55;;;;;;;31.27;19.08;;;1.50;67.20;;;;;;5026051;28;20077;-49
2022/12/15 13:10:24;;;;;;;36.08;22.23;;;1.50;67.10;;;;;;5034237;28;21194;-49
2022/12/15 13:12:58;;;;;;;28.88;20.60;;;1.50;67.00;;;;;;5032664;28;20049;-50
2022/12/15 13:15:47;;;;;;;36.15;22.77;;;1.50;67.00;;;;;;5022908;28;20095;-49
2022/12/15 13:18:18;;;;;;;;;;;1.50;67.00;;;;;;5033435;28;20033;-52
2022/12/15 13:20:47;;;;;;;29.05;20.17;;;1.60;67.50;;;;;;5033348;28;19921;-50
2022/12/15 13:23:22;;;;;;;37.20;20.77;;;1.60;66.70;;;;;;5030355;28;20038;-52
2022/12/15 13:25:51;;;;;;;35.42;21.05;;;1.60;66.70;;;;;;5024422;28;20295;-52
2022/12/15 13:28:30;;;;;;;33.65;21.80;;;1.60;66.80;;;;;;5031817;28;20042;-50
2022/12/15 13:31:15;;;;;;;34.22;22.30;;;1.60;66.80;;;;;;5040302;28;20044;-50
2022/12/15 13:33:49;;;;;;;40.30;24.45;;;1.60;67.00;;;;;;5013999;28;20034;-52
2022/12/15 13:36:35;;;;;;;41.90;26.40;;;1.60;66.80;;;;;;5028388;28;20406;-50
2022/12/15 13:39:15;;;;;;;42.55;25.88;;;1.60;67.10;;;;;;5032386;28;20410;-52
2022/12/15 13:41:45;;;;;;;34.33;23.17;;;1.60;66.80;;;;;;5044604;28;20043;-53
2022/12/15 13:44:42;;;;;;;38.40;22.95;;;1.60;66.80;;;;;;5028539;28;20408;-50
2022/12/15 13:47:28;;;;;;;39.33;23.65;;;1.60;66.80;;;;;;5013446;28;20541;-52
2022/12/15 13:50:11;;;;;;;34.20;20.60;;;1.70;67.00;;;;;;5035432;28;20494;-50
2022/12/15 13:52:46;;;;;;;35.08;21.05;;;1.60;66.90;;;;;;5014243;28;20033;-51
2022/12/15 13:55:38;;;;;;;31.02;20.70;;;1.60;66.70;;;;;;5031022;28;20065;-53
2022/12/15 13:58:16;;;;;;;30.17;20.20;;;1.60;66.70;;;;;;5039294;28;20048;-50
2022/12/15 14:00:53;;;;;;;35.83;22.55;;;1.60;66.80;;;;;;5040215;28;20044;-53
2022/12/15 14:03:20;;;;;;;35.05;20.23;;;1.60;66.80;;;;;;5044189;28;20036;-49
2022/12/15 14:05:55;;;;;;;32.00;22.02;;;1.60;66.70;;;;;;5031471;28;20111;-50
2022/12/15 14:08:24;;;;;;;35.50;21.27;;;1.60;66.80;;;;;;5036940;28;20063;-50
2022/12/15 14:10:53;;;;;;;36.05;21.92;;;1.60;66.70;;;;;;5040926;28;20108;-50
2022/12/15 14:13:36;;;;;;;34.03;21.20;;;1.60;66.70;;;;;;5034680;28;20108;-51
2022/12/15 14:16:18;;;;;;;32.85;21.25;;;1.60;66.80;;;;;;5039957;28;20041;-52
2022/12/15 14:19:21;;;;;;;32.10;21.10;;;1.60;66.70;;;;;;5035763;28;20067;-54
2022/12/15 14:21:50;;;;;;;36.83;20.65;;;1.60;66.60;;;;;;5041342;28;20273;-51
2022/12/15 14:24:44;;;;;;;34.80;21.88;;;1.60;66.40;;;;;;5017302;28;20056;-51
2022/12/15 14:27:26;;;;;;;36.88;21.80;;;1.60;66.60;;;;;;5022323;28;20530;-50
2022/12/15 14:30:23;;;;;;;33.80;20.13;;;1.60;66.40;;;;;;5030776;28;20057;-51
2022/12/15 14:32:55;;;;;;;31.90;21.00;;;1.60;66.40;;;;;;5024686;28;20482;-50
2022/12/15 14:35:35;;;;;;;33.38;22.05;;;1.60;66.20;;;;;;5027727;28;20485;-51
2022/12/15 14:38:06;;;;;;;32.95;21.20;;;1.60;66.20;;;;;;5036159;28;20034;-50
2022/12/15 14:40:38;;;;;;;35.13;21.48;;;1.60;66.20;;;;;;5038504;28;20051;-50
2022/12/15 14:43:10;;;;;;;35.30;21.00;;;1.60;66.20;;;;;;5040337;28;20123;-51
2022/12/15 14:45:37;;;;;;;35.65;22.45;;;1.60;66.30;;;;;;5042101;28;20041;-50
2022/12/15 14:48:08;;;;;;;35.25;21.40;;;1.50;66.20;;;;;;5031306;28;20037;-50
2022/12/15 14:50:59;;;;;;;30.25;20.85;;;1.50;66.30;;;;;;5038225;28;20046;-51
2022/12/15 14:53:31;;;;;;;32.70;20.88;;;1.50;66.20;;;;;;5042524;28;20048;-50
2022/12/15 14:56:17;;;;;;;34.20;21.90;;;1.40;66.10;;;;;;5027839;28;20041;-51
2022/12/15 14:59:04;;;;;;;38.42;21.40;;;1.50;66.20;;;;;;5041677;28;20045;-51
2022/12/15 15:01:48;;;;;;;35.72;20.73;;;1.40;66.10;;;;;;5017225;28;20075;-51
2022/12/15 15:04:31;;;;;;;33.38;21.40;;;1.40;66.00;;;;;;5034242;28;20508;-51
2022/12/15 15:07:01;;;;;;;35.30;21.05;;;1.40;66.10;;;;;;5045532;28;20501;-49
2022/12/15 15:09:40;;;;;;;31.00;19.92;;;1.30;66.30;;;;;;5033679;28;20116;-51
2022/12/15 15:12:13;;;;;;;32.13;19.02;;;1.30;66.50;;;;;;5039798;28;20124;-49
2022/12/15 15:14:59;;;;;;;30.70;20.25;;;1.20;66.40;;;;;;5047044;28;20124;-52
2022/12/15 15:17:29;;;;;;;29.83;19.75;;;1.20;66.30;;;;;;5046778;28;20047;-52
2022/12/15 15:20:03;;;;;;;31.30;19.77;;;1.20;66.20;;;;;;5030988;28;20052;-49
2022/12/15 15:22:39;;;;;;;30.98;20.80;;;1.10;66.00;;;;;;5044332;28;20052;-51
2022/12/15 15:25:31;;;;;;;33.33;20.25;;;1.10;66.00;;;;;;5035031;28;20045;-50
2022/12/15 15:28:17;;;;;;;36.95;20.63;;;1.00;66.00;;;;;;5030805;28;20044;-52
2022/12/15 15:30:56;;;;;;;31.23;19.48;;;1.00;66.00;;;;;;5030634;28;20049;-52
2022/12/15 15:33:24;;;;;;;32.72;19.70;;;0.90;65.80;;;;;;5035895;28;20072;-50
2022/12/15 15:36:01;;;;;;;33.13;20.23;;;0.90;65.80;;;;;;5042886;28;20042;-51
2022/12/15 15:38:30;;;;;;;33.88;19.90;;;0.80;65.90;;;;;;5023215;28;20740;-52